X  Fermer Données météorologiques d'aviation de Metar     ELLX Luxembourg-Findel International Airport
Température
-1°C Température
-2°C Point de rosée
93% Humidité



Vitesse
27 KM/H
17 MPH
8 M/S
15 KTS



260°
Ouest
Conditions actuelles

Légère  Neige Légère Neige
Pression 996.92 (hPa) - 29.44 (inHg)
Visibilité 6.2 (mile) - 10 (km)
Aéroport
Code de l'aéroport ELLX

Emplacement: Luxembourg-Findel International Airport
Distance: 36 (km)

Metar:
ELLX 240620Z 26015KT 9999 -SN FEW007 BKN011 M01/M02 Q0997 TEMPO BKN008

Temps: 24-01-2021 07:20 CET